New Champion — V7GG2 — position and weather

sailwx.info

Track history (hours):
 
Tides and Currents Weather Stations Pressure Air Temp Water Temp Dewpoint Dewpoint Depression Visibility Wind Speed Wind Dir Waves Ship Positions

New Champion

Last reported at 2017-Jun-24 06:59 UTC. Time now 2017-Jun-24 07:14 UTC.
Position N 37°48' E 003°51'.

Length 228 m; draft 11.4 m.

Type: Ship (hazmat cat A). MMSI: 537985031.

Date/timePositionNaut miles runAvg speedWind from/ knotsBaromVisibWave heightAir tempDewpointWater temp
2017-Jun-24 06:59N 37°48' E 003°51'713.2
2017-Jun-24 06:30N 37°50' E 003°59'713.2
2017-Jun-24 06:00N 37°50' E 004°07'613.3
2017-Jun-24 05:31N 37°51' E 004°15'713.3
2017-Jun-24 05:00N 37°51' E 004°24'713.5
2017-Jun-24 04:30N 37°51' E 004°32'913.5
2017-Jun-24 03:49N 37°52' E 004°44'513.5
2017-Jun-24 03:29N 37°51' E 004°50'713.5
2017-Jun-24 02:58N 37°51' E 004°58'613.3
2017-Jun-24 02:30N 37°51' E 005°06'613.1
2017-Jun-24 02:00N 37°51' E 005°14'713.0
2017-Jun-24 01:30N 37°51' E 005°23'612.8
2017-Jun-24 01:00N 37°51' E 005°31'712.7
2017-Jun-24 00:29N 37°50' E 005°39'612.7
2017-Jun-23 23:58N 37°50' E 005°47'4012.7
2017-Jun-23 20:49N 37°51' E 006°38'413.1
2017-Jun-23 20:28N 37°51' E 006°44'613.1
2017-Jun-23 20:00N 37°51' E 006°52'813.3
2017-Jun-23 19:22N 37°51' E 007°02'8013.1
2017-Jun-23 13:17N 37°50' E 008°43'312.3
2017-Jun-23 13:00N 37°50' E 008°48'612.2
2017-Jun-23 12:30N 37°50' E 008°56'612.1
2017-Jun-23 11:58N 37°50' E 009°04'612.1
2017-Jun-23 11:30N 37°49' E 009°11'612.4
2017-Jun-23 11:00N 37°49' E 009°19'612.3
2017-Jun-23 10:29N 37°48' E 009°26'612.6
2017-Jun-23 10:00N 37°47' E 009°34'612.5
2017-Jun-23 09:30N 37°46' E 009°42'612.5
2017-Jun-23 09:00N 37°45' E 009°50'612.7
2017-Jun-23 08:30N 37°44' E 009°58'612.5
2017-Jun-23 08:00N 37°43' E 010°05'612.6
2017-Jun-23 07:30N 37°41' E 010°13'612.6
2017-Jun-23 07:00N 37°40' E 010°21'612.7
2017-Jun-23 06:30N 37°38' E 010°29'713.2
2017-Jun-23 06:00N 37°36' E 010°37'713.2
2017-Jun-23 05:30N 37°34' E 010°44'713.2
2017-Jun-23 05:00N 37°32' E 010°52'713.0
2017-Jun-23 04:30N 37°30' E 011°00'713.0
2017-Jun-23 04:00N 37°28' E 011°08'1513.0
2017-Jun-23 02:50N 37°21' E 011°25'2213.0
2017-Jun-23 01:08N 37°09' E 011°48'912.6
2017-Jun-23 00:26N 37°05' E 011°58'512.6
2017-Jun-23 00:00N 37°02' E 012°04'612.3
2017-Jun-22 23:30N 36°59' E 012°11'612.2
2017-Jun-22 23:00N 36°57' E 012°18'612.3
2017-Jun-22 22:30N 36°54' E 012°24'612.8
2017-Jun-22 22:00N 36°51' E 012°32'713.0
2017-Jun-22 21:30N 36°48' E 012°39'713.2
2017-Jun-22 21:00N 36°46' E 012°47'713.3
2017-Jun-22 20:30N 36°43' E 012°54'713.5
2017-Jun-22 20:00N 36°40' E 013°02'713.5
2017-Jun-22 19:30N 36°38' E 013°09'713.3
2017-Jun-22 19:00N 36°35' E 013°17'612.9
2017-Jun-22 18:30N 36°32' E 013°25'612.8
2017-Jun-22 18:00N 36°30' E 013°32'612.9
2017-Jun-22 17:30N 36°27' E 013°39'613.0
2017-Jun-22 17:01N 36°25' E 013°47'712.9
2017-Jun-22 16:30N 36°22' E 013°54'612.8
2017-Jun-22 16:00N 36°19' E 014°01'612.8
2017-Jun-22 15:30N 36°16' E 014°08'612.7
2017-Jun-22 15:00N 36°13' E 014°15'1312.7
2017-Jun-22 14:00N 36°08' E 014°29'612.8
2017-Jun-22 13:30N 36°05' E 014°36'612.4
2017-Jun-22 13:00N 36°00' E 014°42'612.4
2017-Jun-22 12:30N 35°56' E 014°46'3 5.2
2017-Jun-22 12:00N 35°54' E 014°48'0 0.1
2017-Jun-22 11:29N 35°54' E 014°48'0 0.1
2017-Jun-22 10:59N 35°54' E 014°48'0 0.0
2017-Jun-22 10:29N 35°54' E 014°49'0 0.0
2017-Jun-22 09:59N 35°54' E 014°49'0 0.1
2017-Jun-22 09:29N 35°54' E 014°49'0 0.1
2017-Jun-22 08:59N 35°54' E 014°49'0 0.0
2017-Jun-22 08:29N 35°54' E 014°49'0 0.0
2017-Jun-22 07:59N 35°54' E 014°49'0 0.1
2017-Jun-22 07:29N 35°54' E 014°49'0 0.0
2017-Jun-22 06:59N 35°54' E 014°49'0 0.0
2017-Jun-22 06:29N 35°54' E 014°49'0 0.0
2017-Jun-22 05:59N 35°54' E 014°49'0 0.1
2017-Jun-22 05:29N 35°54' E 014°49'0 0.0
2017-Jun-22 04:59N 35°54' E 014°49'0 0.0
2017-Jun-22 04:29N 35°54' E 014°49'0 0.1
2017-Jun-22 03:59N 35°54' E 014°48'0 0.1
2017-Jun-22 03:29N 35°54' E 014°48'0 0.0
2017-Jun-22 02:56N 35°54' E 014°48'0 0.0
2017-Jun-22 02:17N 35°54' E 014°48'0 0.1
2017-Jun-22 01:59N 35°54' E 014°48'0 0.1
2017-Jun-22 01:29N 35°54' E 014°48'0 0.2
2017-Jun-22 00:59N 35°54' E 014°48'0 0.2
2017-Jun-22 00:30N 35°54' E 014°48'2 3.4
2017-Jun-22 00:00N 35°53' E 014°50'0 0.4
2017-Jun-21 23:08N 35°53' E 014°50'0 0.1
2017-Jun-21 22:59N 35°53' E 014°50'0 0.1
2017-Jun-21 22:26N 35°52' E 014°50'0 0.0
2017-Jun-21 21:59N 35°52' E 014°50'0 0.0
2017-Jun-21 21:23N 35°52' E 014°50'0 0.0
2017-Jun-21 20:59N 35°52' E 014°50'0 0.0
2017-Jun-21 20:29N 35°52' E 014°50'0 0.1
2017-Jun-21 19:59N 35°52' E 014°50'0 0.1
2017-Jun-21 19:23N 35°52' E 014°51'0 0.0
2017-Jun-21 18:56N 35°52' E 014°51'0 0.0
2017-Jun-21 18:29N 35°52' E 014°51'0 0.0
2017-Jun-21 17:59N 35°52' E 014°51'0 0.0
2017-Jun-21 17:14N 35°52' E 014°51'0 0.1
2017-Jun-21 16:59N 35°52' E 014°51'0 0.0
2017-Jun-21 16:29N 35°52' E 014°51'0 0.0
2017-Jun-21 15:56N 35°52' E 014°51'0 0.1
2017-Jun-21 15:29N 35°52' E 014°51'0 0.2
2017-Jun-21 14:53N 35°52' E 014°51'2 2.3
2017-Jun-21 14:00N 35°54' E 014°52'3 6.8
2017-Jun-21 13:30N 35°57' E 014°52'4 7.9
2017-Jun-21 13:00N 36°01' E 014°53'1 1.3
2017-Jun-21 12:25N 36°02' E 014°54'0 0.0
2017-Jun-21 11:58N 36°02' E 014°54'0 0.0
2017-Jun-21 11:28N 36°02' E 014°54'0 0.0
2017-Jun-21 10:49N 36°02' E 014°54'0 0.0
2017-Jun-21 10:28N 36°02' E 014°54'0 0.0
2017-Jun-21 09:58N 36°02' E 014°54'0 0.0
2017-Jun-21 09:28N 36°02' E 014°54'0 0.0
2017-Jun-21 08:58N 36°02' E 014°54'0 0.0
2017-Jun-21 08:25N 36°02' E 014°54'0 0.0
2017-Jun-21 07:55N 36°02' E 014°54'0 0.0
2017-Jun-21 07:28N 36°02' E 014°54'0 0.0
2017-Jun-21 06:58N 36°02' E 014°54'0 0.0
2017-Jun-21 06:25N 36°02' E 014°54'0 0.0
2017-Jun-21 05:58N 36°02' E 014°54'0 0.0
2017-Jun-21 05:28N 36°02' E 014°54'0 0.0
2017-Jun-21 04:55N 36°02' E 014°54'0 0.0
2017-Jun-21 04:28N 36°02' E 014°54'0 0.1
2017-Jun-21 03:58N 36°02' E 014°54'0 0.1
2017-Jun-21 03:25N 36°02' E 014°54'0 0.1
2017-Jun-21 02:58N 36°02' E 014°54'0 0.1
2017-Jun-21 02:28N 36°02' E 014°54'0 0.1
2017-Jun-21 01:58N 36°02' E 014°54'0 0.0
2017-Jun-21 01:28N 36°02' E 014°54'0 0.0
2017-Jun-21 00:58N 36°02' E 014°54'0 0.1
2017-Jun-21 00:28N 36°02' E 014°54'0 0.0
2017-Jun-20 23:58N 36°02' E 014°54'0 0.0
2017-Jun-20 23:28N 36°02' E 014°54'0 0.1
2017-Jun-20 22:52N 36°02' E 014°54'0 0.0
2017-Jun-20 22:16N 36°02' E 014°54'0 0.0
2017-Jun-20 21:58N 36°02' E 014°54'0 0.0
2017-Jun-20 21:25N 36°02' E 014°54'0 0.0
2017-Jun-20 20:58N 36°02' E 014°54'0 0.1
2017-Jun-20 20:28N 36°02' E 014°54'0 0.0
2017-Jun-20 19:46N 36°02' E 014°54'0 0.0
2017-Jun-20 19:25N 36°02' E 014°54'0 0.0
2017-Jun-20 18:58N 36°02' E 014°54'0 0.1
2017-Jun-20 18:16N 36°02' E 014°54'0 0.1
2017-Jun-20 17:58N 36°02' E 014°54'0 0.1
2017-Jun-20 17:28N 36°02' E 014°54'0 0.1
2017-Jun-20 16:58N 36°02' E 014°54'0 0.0
2017-Jun-20 16:25N 36°02' E 014°54'0 0.0
2017-Jun-20 15:58N 36°02' E 014°54'0 0.0
2017-Jun-20 13:37N 36°02' E 014°54'0 0.0
2017-Jun-20 13:28N 36°02' E 014°54'0 0.1
2017-Jun-20 12:49N 36°02' E 014°54'0 0.1
2017-Jun-20 12:22N 36°02' E 014°54'9 1.5
2017-Jun-20 06:10N 36°04' E 014°43'0 0.6
2017-Jun-20 06:00N 36°04' E 014°43'0 0.4
2017-Jun-20 05:28N 36°04' E 014°43'0 0.7
2017-Jun-20 05:00N 36°04' E 014°43'4 7.1
2017-Jun-20 04:30N 36°01' E 014°45'4 8.8
2017-Jun-20 04:00N 35°57' E 014°47'2 4.7
2017-Jun-20 03:30N 35°55' E 014°49'510.1
2017-Jun-20 03:00N 35°50' E 014°49'510.6
2017-Jun-20 02:30N 35°45' E 014°48'3 6.3
2017-Jun-20 02:00N 35°42' E 014°46'613.0
2017-Jun-20 01:30N 35°37' E 014°41'713.1
2017-Jun-20 01:00N 35°31' E 014°37'713.1
2017-Jun-20 00:29N 35°25' E 014°33'613.0
2017-Jun-20 00:00N 35°20' E 014°28'713.1
2017-Jun-19 23:30N 35°15' E 014°23'713.2
2017-Jun-19 23:00N 35°10' E 014°19'713.4
2017-Jun-19 22:29N 35°04' E 014°15'  
2017-Jun-17 18:06N 32°48' E 012°42'0 0.0
2017-Jun-17 12:36N 32°48' E 012°42'0 0.1
2017-Jun-17 12:27N 32°48' E 012°42'0 0.0
2017-Jun-17 10:21N 32°48' E 012°42'0 0.0
2017-Jun-17 10:00N 32°48' E 012°42'0 0.0
2017-Jun-17 09:27N 32°48' E 012°42'0 0.0
2017-Jun-17 08:48N 32°48' E 012°42'0 0.0
2017-Jun-17 08:30N 32°48' E 012°42'0 0.0
2017-Jun-16 13:06N 32°48' E 012°42'0 1.5
2017-Jun-16 13:00N 32°48' E 012°42'1 2.7
2017-Jun-16 12:30N 32°49' E 012°40'1 1.7
2017-Jun-16 12:00N 32°50' E 012°40'0 0.7
2017-Jun-16 11:30N 32°50' E 012°39'0 0.0
2017-Jun-16 11:00N 32°50' E 012°39'0 0.0
2017-Jun-16 10:18N 32°50' E 012°39'0 0.1
2017-Jun-16 10:00N 32°50' E 012°39'0 0.0
2017-Jun-16 09:30N 32°50' E 012°39'0 0.0
2017-Jun-16 09:00N 32°50' E 012°39'0 0.0
2017-Jun-16 08:27N 32°50' E 012°39'0 0.0
2017-Jun-16 07:12N 32°50' E 012°39'0 0.0
2017-Jun-16 06:51N 32°50' E 012°39'0 0.0
2017-Jun-16 06:30N 32°50' E 012°39'0 0.0
2017-Jun-16 06:00N 32°50' E 012°39'0 0.0
2017-Jun-16 05:30N 32°50' E 012°39'0 0.0
2017-Jun-16 05:00N 32°50' E 012°39'0 0.2
2017-Jun-16 04:30N 32°50' E 012°39'0 0.1
2017-Jun-16 02:33N 32°50' E 012°39'0 0.0
2017-Jun-16 02:03N 32°50' E 012°39'0 0.1
2017-Jun-16 01:57N 32°50' E 012°39'0 0.0
2017-Jun-16 00:00N 32°50' E 012°39'0 0.0
2017-Jun-15 23:30N 32°50' E 012°39'0 0.0
2017-Jun-15 23:00N 32°50' E 012°39'0 0.0
2017-Jun-15 22:29N 32°50' E 012°39'0 0.0
2017-Jun-15 22:00N 32°50' E 012°39'0 0.0
2017-Jun-15 21:09N 32°50' E 012°39'0 0.0
2017-Jun-15 20:57N 32°50' E 012°39'0 0.0
2017-Jun-15 20:30N 32°50' E 012°39'0 0.0
2017-Jun-15 20:00N 32°50' E 012°39'0 0.0
2017-Jun-15 19:30N 32°50' E 012°39'0 0.0
2017-Jun-15 18:57N 32°50' E 012°39'0 0.0
2017-Jun-15 18:29N 32°50' E 012°39'0 0.1
2017-Jun-15 18:00N 32°50' E 012°39'0 0.0
2017-Jun-15 17:30N 32°50' E 012°39'0 0.0
2017-Jun-15 16:56N 32°50' E 012°39'0 0.0
2017-Jun-15 16:30N 32°50' E 012°39'0 0.0
2017-Jun-15 16:00N 32°50' E 012°39'0 0.0
2017-Jun-15 15:30N 32°50' E 012°39'0 0.0
2017-Jun-15 14:54N 32°50' E 012°39'0 0.0
2017-Jun-15 14:00N 32°50' E 012°39'0 0.0
2017-Jun-15 13:27N 32°50' E 012°39'0 0.0
2017-Jun-15 12:54N 32°50' E 012°39'0 0.0
2017-Jun-15 12:21N 32°50' E 012°39'0 0.0
2017-Jun-15 11:57N 32°50' E 012°39'0 0.1
2017-Jun-15 11:30N 32°50' E 012°39'0 0.0
2017-Jun-15 10:48N 32°50' E 012°39'0 0.0
2017-Jun-15 09:51N 32°50' E 012°39'0 0.0
2017-Jun-15 09:27N 32°50' E 012°39'0 0.0
2017-Jun-15 09:00N 32°50' E 012°39'0 0.0
2017-Jun-15 06:50N 32°50' E 012°39'0 0.0
2017-Jun-15 00:42N 32°50' E 012°39'0 0.0
2017-Jun-15 00:26N 32°50' E 012°39'0 0.0
2017-Jun-14 20:42N 32°50' E 012°39'0 0.1
2017-Jun-14 19:42N 32°50' E 012°39'0 0.2
2017-Jun-14 19:29N 32°50' E 012°39'2 3.2
2017-Jun-14 18:58N 32°51' E 012°39'3 6.4
2017-Jun-14 18:30N 32°54' E 012°39'5 9.8
2017-Jun-14 17:59N 32°59' E 012°40'510.1
2017-Jun-14 17:29N 33°04' E 012°38'510.1
2017-Jun-14 16:59N 33°09' E 012°37'510.3
2017-Jun-14 16:29N 33°14' E 012°35'510.4
2017-Jun-14 16:00N 33°19' E 012°34'510.5
2017-Jun-14 15:29N 33°24' E 012°33'  
Track history (hours):
 
Tides and Currents Weather Stations Pressure Air Temp Water Temp Dewpoint Dewpoint Depression Visibility Wind Speed Wind Dir Waves Ship Positions

New Champion

Last reported at 2017-Jun-24 06:59 UTC. Time now 2017-Jun-24 07:14 UTC.
Position N 37°48' E 003°51'.

Length 228 m; draft 11.4 m.

Type: Ship (hazmat cat A). MMSI: 537985031.

Date/timePositionNaut miles runAvg speedWind from/ knotsBaromVisibWave heightAir tempDewpointWater temp
2017-Jun-24 06:59N 37°48' E 003°51'713.2
2017-Jun-24 06:30N 37°50' E 003°59'713.2
2017-Jun-24 06:00N 37°50' E 004°07'613.3
2017-Jun-24 05:31N 37°51' E 004°15'713.3
2017-Jun-24 05:00N 37°51' E 004°24'713.5
2017-Jun-24 04:30N 37°51' E 004°32'913.5
2017-Jun-24 03:49N 37°52' E 004°44'513.5
2017-Jun-24 03:29N 37°51' E 004°50'713.5
2017-Jun-24 02:58N 37°51' E 004°58'613.3
2017-Jun-24 02:30N 37°51' E 005°06'613.1
2017-Jun-24 02:00N 37°51' E 005°14'713.0
2017-Jun-24 01:30N 37°51' E 005°23'612.8
2017-Jun-24 01:00N 37°51' E 005°31'712.7
2017-Jun-24 00:29N 37°50' E 005°39'612.7
2017-Jun-23 23:58N 37°50' E 005°47'4012.7
2017-Jun-23 20:49N 37°51' E 006°38'413.1
2017-Jun-23 20:28N 37°51' E 006°44'613.1
2017-Jun-23 20:00N 37°51' E 006°52'813.3
2017-Jun-23 19:22N 37°51' E 007°02'8013.1
2017-Jun-23 13:17N 37°50' E 008°43'312.3
2017-Jun-23 13:00N 37°50' E 008°48'612.2
2017-Jun-23 12:30N 37°50' E 008°56'612.1
2017-Jun-23 11:58N 37°50' E 009°04'612.1
2017-Jun-23 11:30N 37°49' E 009°11'612.4
2017-Jun-23 11:00N 37°49' E 009°19'612.3
2017-Jun-23 10:29N 37°48' E 009°26'612.6
2017-Jun-23 10:00N 37°47' E 009°34'612.5
2017-Jun-23 09:30N 37°46' E 009°42'612.5
2017-Jun-23 09:00N 37°45' E 009°50'612.7
2017-Jun-23 08:30N 37°44' E 009°58'612.5
2017-Jun-23 08:00N 37°43' E 010°05'612.6
2017-Jun-23 07:30N 37°41' E 010°13'612.6
2017-Jun-23 07:00N 37°40' E 010°21'612.7
2017-Jun-23 06:30N 37°38' E 010°29'713.2
2017-Jun-23 06:00N 37°36' E 010°37'713.2
2017-Jun-23 05:30N 37°34' E 010°44'713.2
2017-Jun-23 05:00N 37°32' E 010°52'713.0
2017-Jun-23 04:30N 37°30' E 011°00'713.0
2017-Jun-23 04:00N 37°28' E 011°08'1513.0
2017-Jun-23 02:50N 37°21' E 011°25'2213.0
2017-Jun-23 01:08N 37°09' E 011°48'912.6
2017-Jun-23 00:26N 37°05' E 011°58'512.6
2017-Jun-23 00:00N 37°02' E 012°04'612.3
2017-Jun-22 23:30N 36°59' E 012°11'612.2
2017-Jun-22 23:00N 36°57' E 012°18'612.3
2017-Jun-22 22:30N 36°54' E 012°24'612.8
2017-Jun-22 22:00N 36°51' E 012°32'713.0
2017-Jun-22 21:30N 36°48' E 012°39'713.2
2017-Jun-22 21:00N 36°46' E 012°47'713.3
2017-Jun-22 20:30N 36°43' E 012°54'713.5
2017-Jun-22 20:00N 36°40' E 013°02'713.5
2017-Jun-22 19:30N 36°38' E 013°09'713.3
2017-Jun-22 19:00N 36°35' E 013°17'612.9
2017-Jun-22 18:30N 36°32' E 013°25'612.8
2017-Jun-22 18:00N 36°30' E 013°32'612.9
2017-Jun-22 17:30N 36°27' E 013°39'613.0
2017-Jun-22 17:01N 36°25' E 013°47'712.9
2017-Jun-22 16:30N 36°22' E 013°54'612.8
2017-Jun-22 16:00N 36°19' E 014°01'612.8
2017-Jun-22 15:30N 36°16' E 014°08'612.7
2017-Jun-22 15:00N 36°13' E 014°15'1312.7
2017-Jun-22 14:00N 36°08' E 014°29'612.8
2017-Jun-22 13:30N 36°05' E 014°36'612.4
2017-Jun-22 13:00N 36°00' E 014°42'612.4
2017-Jun-22 12:30N 35°56' E 014°46'3 5.2
2017-Jun-22 12:00N 35°54' E 014°48'0 0.1
2017-Jun-22 11:29N 35°54' E 014°48'0 0.1
2017-Jun-22 10:59N 35°54' E 014°48'0 0.0
2017-Jun-22 10:29N 35°54' E 014°49'0 0.0
2017-Jun-22 09:59N 35°54' E 014°49'0 0.1
2017-Jun-22 09:29N 35°54' E 014°49'0 0.1
2017-Jun-22 08:59N 35°54' E 014°49'0 0.0
2017-Jun-22 08:29N 35°54' E 014°49'0 0.0
2017-Jun-22 07:59N 35°54' E 014°49'0 0.1
2017-Jun-22 07:29N 35°54' E 014°49'0 0.0
2017-Jun-22 06:59N 35°54' E 014°49'0 0.0
2017-Jun-22 06:29N 35°54' E 014°49'0 0.0
2017-Jun-22 05:59N 35°54' E 014°49'0 0.1
2017-Jun-22 05:29N 35°54' E 014°49'0 0.0
2017-Jun-22 04:59N 35°54' E 014°49'0 0.0
2017-Jun-22 04:29N 35°54' E 014°49'0 0.1
2017-Jun-22 03:59N 35°54' E 014°48'0 0.1
2017-Jun-22 03:29N 35°54' E 014°48'0 0.0
2017-Jun-22 02:56N 35°54' E 014°48'0 0.0
2017-Jun-22 02:17N 35°54' E 014°48'0 0.1
2017-Jun-22 01:59N 35°54' E 014°48'0 0.1
2017-Jun-22 01:29N 35°54' E 014°48'0 0.2
2017-Jun-22 00:59N 35°54' E 014°48'0 0.2
2017-Jun-22 00:30N 35°54' E 014°48'2 3.4
2017-Jun-22 00:00N 35°53' E 014°50'0 0.4
2017-Jun-21 23:08N 35°53' E 014°50'0 0.1
2017-Jun-21 22:59N 35°53' E 014°50'0 0.1
2017-Jun-21 22:26N 35°52' E 014°50'0 0.0
2017-Jun-21 21:59N 35°52' E 014°50'0 0.0
2017-Jun-21 21:23N 35°52' E 014°50'0 0.0
2017-Jun-21 20:59N 35°52' E 014°50'0 0.0
2017-Jun-21 20:29N 35°52' E 014°50'0 0.1
2017-Jun-21 19:59N 35°52' E 014°50'0 0.1
2017-Jun-21 19:23N 35°52' E 014°51'0 0.0
2017-Jun-21 18:56N 35°52' E 014°51'0 0.0
2017-Jun-21 18:29N 35°52' E 014°51'0 0.0
2017-Jun-21 17:59N 35°52' E 014°51'0 0.0
2017-Jun-21 17:14N 35°52' E 014°51'0 0.1
2017-Jun-21 16:59N 35°52' E 014°51'0 0.0
2017-Jun-21 16:29N 35°52' E 014°51'0 0.0
2017-Jun-21 15:56N 35°52' E 014°51'0 0.1
2017-Jun-21 15:29N 35°52' E 014°51'0 0.2
2017-Jun-21 14:53N 35°52' E 014°51'2 2.3
2017-Jun-21 14:00N 35°54' E 014°52'3 6.8
2017-Jun-21 13:30N 35°57' E 014°52'4 7.9
2017-Jun-21 13:00N 36°01' E 014°53'1 1.3
2017-Jun-21 12:25N 36°02' E 014°54'0 0.0
2017-Jun-21 11:58N 36°02' E 014°54'0 0.0
2017-Jun-21 11:28N 36°02' E 014°54'0 0.0
2017-Jun-21 10:49N 36°02' E 014°54'0 0.0
2017-Jun-21 10:28N 36°02' E 014°54'0 0.0
2017-Jun-21 09:58N 36°02' E 014°54'0 0.0
2017-Jun-21 09:28N 36°02' E 014°54'0 0.0
2017-Jun-21 08:58N 36°02' E 014°54'0 0.0
2017-Jun-21 08:25N 36°02' E 014°54'0 0.0
2017-Jun-21 07:55N 36°02' E 014°54'0 0.0
2017-Jun-21 07:28N 36°02' E 014°54'0 0.0
2017-Jun-21 06:58N 36°02' E 014°54'0 0.0
2017-Jun-21 06:25N 36°02' E 014°54'0 0.0
2017-Jun-21 05:58N 36°02' E 014°54'0 0.0
2017-Jun-21 05:28N 36°02' E 014°54'0 0.0
2017-Jun-21 04:55N 36°02' E 014°54'0 0.0
2017-Jun-21 04:28N 36°02' E 014°54'0 0.1
2017-Jun-21 03:58N 36°02' E 014°54'0 0.1
2017-Jun-21 03:25N 36°02' E 014°54'0 0.1
2017-Jun-21 02:58N 36°02' E 014°54'0 0.1
2017-Jun-21 02:28N 36°02' E 014°54'0 0.1
2017-Jun-21 01:58N 36°02' E 014°54'0 0.0
2017-Jun-21 01:28N 36°02' E 014°54'0 0.0
2017-Jun-21 00:58N 36°02' E 014°54'0 0.1
2017-Jun-21 00:28N 36°02' E 014°54'0 0.0
2017-Jun-20 23:58N 36°02' E 014°54'0 0.0
2017-Jun-20 23:28N 36°02' E 014°54'0 0.1
2017-Jun-20 22:52N 36°02' E 014°54'0 0.0
2017-Jun-20 22:16N 36°02' E 014°54'0 0.0
2017-Jun-20 21:58N 36°02' E 014°54'0 0.0
2017-Jun-20 21:25N 36°02' E 014°54'0 0.0
2017-Jun-20 20:58N 36°02' E 014°54'0 0.1
2017-Jun-20 20:28N 36°02' E 014°54'0 0.0
2017-Jun-20 19:46N 36°02' E 014°54'0 0.0
2017-Jun-20 19:25N 36°02' E 014°54'0 0.0
2017-Jun-20 18:58N 36°02' E 014°54'0 0.1
2017-Jun-20 18:16N 36°02' E 014°54'0 0.1
2017-Jun-20 17:58N 36°02' E 014°54'0 0.1
2017-Jun-20 17:28N 36°02' E 014°54'0 0.1
2017-Jun-20 16:58N 36°02' E 014°54'0 0.0
2017-Jun-20 16:25N 36°02' E 014°54'0 0.0
2017-Jun-20 15:58N 36°02' E 014°54'0 0.0
2017-Jun-20 13:37N 36°02' E 014°54'0 0.0
2017-Jun-20 13:28N 36°02' E 014°54'0 0.1
2017-Jun-20 12:49N 36°02' E 014°54'0 0.1
2017-Jun-20 12:22N 36°02' E 014°54'9 1.5
2017-Jun-20 06:10N 36°04' E 014°43'0 0.6
2017-Jun-20 06:00N 36°04' E 014°43'0 0.4
2017-Jun-20 05:28N 36°04' E 014°43'0 0.7
2017-Jun-20 05:00N 36°04' E 014°43'4 7.1
2017-Jun-20 04:30N 36°01' E 014°45'4 8.8
2017-Jun-20 04:00N 35°57' E 014°47'2 4.7
2017-Jun-20 03:30N 35°55' E 014°49'510.1
2017-Jun-20 03:00N 35°50' E 014°49'510.6
2017-Jun-20 02:30N 35°45' E 014°48'3 6.3
2017-Jun-20 02:00N 35°42' E 014°46'613.0
2017-Jun-20 01:30N 35°37' E 014°41'713.1
2017-Jun-20 01:00N 35°31' E 014°37'713.1
2017-Jun-20 00:29N 35°25' E 014°33'613.0
2017-Jun-20 00:00N 35°20' E 014°28'713.1
2017-Jun-19 23:30N 35°15' E 014°23'713.2
2017-Jun-19 23:00N 35°10' E 014°19'713.4
2017-Jun-19 22:29N 35°04' E 014°15'  
2017-Jun-17 18:06N 32°48' E 012°42'0 0.0
2017-Jun-17 12:36N 32°48' E 012°42'0 0.1
2017-Jun-17 12:27N 32°48' E 012°42'0 0.0
2017-Jun-17 10:21N 32°48' E 012°42'0 0.0
2017-Jun-17 10:00N 32°48' E 012°42'0 0.0
2017-Jun-17 09:27N 32°48' E 012°42'0 0.0
2017-Jun-17 08:48N 32°48' E 012°42'0 0.0
2017-Jun-17 08:30N 32°48' E 012°42'0 0.0
2017-Jun-16 13:06N 32°48' E 012°42'0 1.5
2017-Jun-16 13:00N 32°48' E 012°42'1 2.7
2017-Jun-16 12:30N 32°49' E 012°40'1 1.7
2017-Jun-16 12:00N 32°50' E 012°40'0 0.7
2017-Jun-16 11:30N 32°50' E 012°39'0 0.0
2017-Jun-16 11:00N 32°50' E 012°39'0 0.0
2017-Jun-16 10:18N 32°50' E 012°39'0 0.1
2017-Jun-16 10:00N 32°50' E 012°39'0 0.0
2017-Jun-16 09:30N 32°50' E 012°39'0 0.0
2017-Jun-16 09:00N 32°50' E 012°39'0 0.0
2017-Jun-16 08:27N 32°50' E 012°39'0 0.0
2017-Jun-16 07:12N 32°50' E 012°39'0 0.0
2017-Jun-16 06:51N 32°50' E 012°39'0 0.0
2017-Jun-16 06:30N 32°50' E 012°39'0 0.0
2017-Jun-16 06:00N 32°50' E 012°39'0 0.0
2017-Jun-16 05:30N 32°50' E 012°39'0 0.0
2017-Jun-16 05:00N 32°50' E 012°39'0 0.2
2017-Jun-16 04:30N 32°50' E 012°39'0 0.1
2017-Jun-16 02:33N 32°50' E 012°39'0 0.0
2017-Jun-16 02:03N 32°50' E 012°39'0 0.1
2017-Jun-16 01:57N 32°50' E 012°39'0 0.0
2017-Jun-16 00:00N 32°50' E 012°39'0 0.0
2017-Jun-15 23:30N 32°50' E 012°39'0 0.0
2017-Jun-15 23:00N 32°50' E 012°39'0 0.0
2017-Jun-15 22:29N 32°50' E 012°39'0 0.0
2017-Jun-15 22:00N 32°50' E 012°39'0 0.0
2017-Jun-15 21:09N 32°50' E 012°39'0 0.0
2017-Jun-15 20:57N 32°50' E 012°39'0 0.0
2017-Jun-15 20:30N 32°50' E 012°39'0 0.0
2017-Jun-15 20:00N 32°50' E 012°39'0 0.0
2017-Jun-15 19:30N 32°50' E 012°39'0 0.0
2017-Jun-15 18:57N 32°50' E 012°39'0 0.0
2017-Jun-15 18:29N 32°50' E 012°39'0 0.1
2017-Jun-15 18:00N 32°50' E 012°39'0 0.0
2017-Jun-15 17:30N 32°50' E 012°39'0 0.0
2017-Jun-15 16:56N 32°50' E 012°39'0 0.0
2017-Jun-15 16:30N 32°50' E 012°39'0 0.0
2017-Jun-15 16:00N 32°50' E 012°39'0 0.0
2017-Jun-15 15:30N 32°50' E 012°39'0 0.0
2017-Jun-15 14:54N 32°50' E 012°39'0 0.0
2017-Jun-15 14:00N 32°50' E 012°39'0 0.0
2017-Jun-15 13:27N 32°50' E 012°39'0 0.0
2017-Jun-15 12:54N 32°50' E 012°39'0 0.0
2017-Jun-15 12:21N 32°50' E 012°39'0 0.0
2017-Jun-15 11:57N 32°50' E 012°39'0 0.1
2017-Jun-15 11:30N 32°50' E 012°39'0 0.0
2017-Jun-15 10:48N 32°50' E 012°39'0 0.0
2017-Jun-15 09:51N 32°50' E 012°39'0 0.0
2017-Jun-15 09:27N 32°50' E 012°39'0 0.0
2017-Jun-15 09:00N 32°50' E 012°39'0 0.0
2017-Jun-15 06:50N 32°50' E 012°39'0 0.0
2017-Jun-15 00:42N 32°50' E 012°39'0 0.0
2017-Jun-15 00:26N 32°50' E 012°39'0 0.0
2017-Jun-14 20:42N 32°50' E 012°39'0 0.1
2017-Jun-14 19:42N 32°50' E 012°39'0 0.2
2017-Jun-14 19:29N 32°50' E 012°39'2 3.2
2017-Jun-14 18:58N 32°51' E 012°39'3 6.4
2017-Jun-14 18:30N 32°54' E 012°39'5 9.8
2017-Jun-14 17:59N 32°59' E 012°40'510.1
2017-Jun-14 17:29N 33°04' E 012°38'510.1
2017-Jun-14 16:59N 33°09' E 012°37'510.3
2017-Jun-14 16:29N 33°14' E 012°35'510.4
2017-Jun-14 16:00N 33°19' E 012°34'510.5
2017-Jun-14 15:29N 33°24' E 012°33'  

Dump ship's entire track history